createdAt,value
2023-02-22T00:00:29.327Z,6.90
2023-02-22T00:00:53.031Z,6.90
2023-02-22T00:01:34.349Z,6.90
2023-02-22T00:02:14.099Z,6.90
2023-02-22T00:02:37.768Z,6.90
2023-02-22T00:03:00.484Z,6.90
2023-02-22T00:03:28.066Z,6.90
2023-02-22T00:03:51.890Z,6.90
2023-02-22T00:04:16.196Z,6.90
2023-02-22T00:04:42.242Z,6.90
2023-02-22T00:05:05.370Z,6.80
2023-02-22T00:05:28.751Z,6.80
2023-02-22T00:05:53.792Z,6.80
2023-02-22T00:06:17.636Z,6.80
2023-02-22T00:06:41.822Z,6.80
2023-02-22T00:07:04.785Z,6.80
2023-02-22T00:07:29.719Z,6.80
2023-02-22T00:07:52.494Z,6.90
2023-02-22T00:08:15.437Z,6.90
2023-02-22T00:08:38.255Z,6.90
2023-02-22T00:09:03.542Z,6.80
2023-02-22T00:09:26.294Z,6.80
2023-02-22T00:09:49.633Z,6.80
2023-02-22T00:10:14.263Z,6.80
2023-02-22T00:10:38.591Z,6.90
2023-02-22T00:11:02.143Z,6.90
2023-02-22T00:11:25.188Z,6.80
2023-02-22T00:11:50.373Z,6.80
2023-02-22T00:12:13.148Z,6.80
2023-02-22T00:12:43.805Z,6.80
2023-02-22T00:13:07.725Z,6.90
2023-02-22T00:13:32.339Z,6.80
2023-02-22T00:13:57.531Z,6.90
2023-02-22T00:14:20.588Z,6.80
2023-02-22T00:14:43.385Z,6.80
2023-02-22T00:15:06.474Z,6.80
2023-02-22T00:15:29.176Z,6.80
2023-02-22T00:15:51.873Z,6.80
2023-02-22T00:16:17.859Z,6.80
2023-02-22T00:16:40.643Z,6.80
2023-02-22T00:17:03.445Z,6.80
2023-02-22T00:17:26.291Z,6.80
2023-02-22T00:17:49.112Z,6.80
2023-02-22T00:18:13.457Z,6.80
2023-02-22T00:18:36.176Z,6.80
2023-02-22T00:18:58.959Z,6.80
2023-02-22T00:19:21.860Z,6.80
2023-02-22T00:19:44.570Z,6.80
2023-02-22T00:20:08.304Z,6.80
2023-02-22T00:20:31.078Z,6.80
2023-02-22T00:20:53.748Z,6.80
2023-02-22T00:21:17.161Z,6.80
2023-02-22T00:21:41.471Z,6.80
2023-02-22T00:22:05.232Z,6.80
2023-02-22T00:22:28.009Z,6.80
2023-02-22T00:22:53.878Z,6.70
2023-02-22T00:23:19.235Z,6.70
2023-02-22T00:23:46.749Z,6.70
2023-02-22T00:24:23.511Z,6.70
2023-02-22T00:24:46.668Z,6.70
2023-02-22T00:25:09.619Z,6.70
2023-02-22T00:25:32.345Z,6.70
2023-02-22T00:25:55.385Z,6.70
2023-02-22T00:26:20.764Z,6.70
2023-02-22T00:26:43.353Z,6.70
2023-02-22T00:27:06.091Z,6.70
2023-02-22T00:27:28.812Z,6.70
2023-02-22T00:27:53.155Z,6.70
2023-02-22T00:28:17.160Z,6.70
2023-02-22T00:28:39.910Z,6.70
2023-02-22T00:29:05.133Z,6.70
2023-02-22T00:29:28.704Z,6.70
2023-02-22T00:29:56.667Z,6.70
2023-02-22T00:30:21.125Z,6.70
2023-02-22T00:30:44.106Z,6.70
2023-02-22T00:31:07.719Z,6.70
2023-02-22T00:31:30.511Z,6.70
2023-02-22T00:31:53.452Z,6.70
2023-02-22T00:32:16.898Z,6.70
2023-02-22T00:32:39.769Z,6.70
2023-02-22T00:33:02.722Z,6.70
2023-02-22T00:33:25.458Z,6.70
2023-02-22T00:33:48.249Z,6.70
2023-02-22T00:34:11.051Z,6.70
2023-02-22T00:34:33.788Z,6.70
2023-02-22T00:34:56.960Z,6.60
2023-02-22T00:35:21.697Z,6.60
2023-02-22T00:35:46.069Z,6.70
2023-02-22T00:36:10.478Z,6.60
2023-02-22T00:36:33.241Z,6.60
2023-02-22T00:36:57.424Z,6.70
2023-02-22T00:37:20.381Z,6.60
2023-02-22T00:37:43.203Z,6.60
2023-02-22T00:38:08.348Z,6.60
2023-02-22T00:38:31.118Z,6.60
2023-02-22T00:38:56.223Z,6.60
2023-02-22T00:39:19.031Z,6.60
2023-02-22T00:39:44.878Z,6.60
2023-02-22T00:40:09.088Z,6.50
2023-02-22T00:40:33.684Z,6.50
2023-02-22T00:40:56.460Z,6.50
2023-02-22T00:41:19.870Z,6.50
2023-02-22T00:41:43.449Z,6.50
2023-02-22T00:42:06.456Z,6.50
2023-02-22T00:42:29.199Z,6.50
2023-02-22T00:42:52.044Z,6.50
2023-02-22T00:43:17.464Z,6.50
2023-02-22T00:43:40.351Z,6.50
2023-02-22T00:44:03.099Z,6.50
2023-02-22T00:44:28.988Z,6.50
2023-02-22T00:44:51.763Z,6.50
2023-02-22T00:45:15.913Z,6.50
2023-02-22T00:45:38.797Z,6.40
2023-02-22T00:46:01.611Z,6.50
2023-02-22T00:46:24.722Z,6.50
2023-02-22T00:46:50.136Z,6.50
2023-02-22T00:47:13.083Z,6.50
2023-02-22T00:47:35.856Z,6.40
2023-02-22T00:48:00.503Z,6.50
2023-02-22T00:48:23.442Z,6.40
2023-02-22T00:48:46.227Z,6.40
2023-02-22T00:49:12.278Z,6.40
2023-02-22T00:49:35.211Z,6.40
2023-02-22T00:50:01.037Z,6.40
2023-02-22T00:50:24.685Z,6.40
2023-02-22T00:50:50.742Z,6.40
2023-02-22T00:51:13.820Z,6.40
2023-02-22T00:51:37.128Z,6.40
2023-02-22T00:52:04.969Z,6.40
2023-02-22T00:52:27.919Z,6.40
2023-02-22T00:52:50.743Z,6.40
2023-02-22T00:53:13.920Z,6.40
2023-02-22T00:53:36.602Z,6.30
2023-02-22T00:53:59.458Z,6.40
2023-02-22T00:54:22.226Z,6.40
2023-02-22T00:54:44.989Z,6.40
2023-02-22T00:55:09.628Z,6.40
2023-02-22T00:55:34.446Z,6.40
2023-02-22T00:55:57.138Z,6.40
2023-02-22T00:56:26.074Z,6.40
2023-02-22T00:56:50.827Z,6.40
2023-02-22T00:57:13.737Z,6.40
2023-02-22T00:57:36.577Z,6.40
2023-02-22T00:57:59.453Z,6.40
2023-02-22T00:58:26.653Z,6.50
2023-02-22T00:58:50.026Z,6.40
2023-02-22T00:59:12.816Z,6.40
2023-02-22T00:59:35.553Z,6.50
2023-02-22T00:59:58.243Z,6.40
2023-02-22T01:00:22.418Z,6.50
2023-02-22T01:00:45.188Z,6.50
2023-02-22T01:01:08.399Z,6.40
2023-02-22T01:01:31.923Z,6.40
2023-02-22T01:01:57.149Z,6.50
2023-02-22T01:02:23.309Z,6.40
2023-02-22T01:02:46.256Z,6.40
2023-02-22T01:03:15.671Z,6.40
2023-02-22T01:03:41.622Z,6.40
2023-02-22T01:04:05.058Z,6.40
2023-02-22T01:04:28.022Z,6.40
2023-02-22T01:04:53.027Z,6.40
2023-02-22T01:05:18.286Z,6.40
2023-02-22T01:05:41.125Z,6.40
2023-02-22T01:06:04.431Z,6.40
2023-02-22T01:06:27.205Z,6.40
2023-02-22T01:06:54.252Z,6.40
2023-02-22T01:07:18.482Z,6.40
2023-02-22T01:07:41.424Z,6.40
2023-02-22T01:08:06.636Z,6.40
2023-02-22T01:08:32.843Z,6.40
2023-02-22T01:08:55.890Z,6.30
2023-02-22T01:09:18.615Z,6.30
2023-02-22T01:09:44.537Z,6.40
2023-02-22T01:10:08.888Z,6.30
2023-02-22T01:10:44.238Z,6.30
2023-02-22T01:11:07.064Z,6.30
2023-02-22T01:11:32.216Z,6.30
2023-02-22T01:11:58.004Z,6.30
2023-02-22T01:12:21.292Z,6.30
2023-02-22T01:12:44.013Z,6.30
2023-02-22T01:13:09.503Z,6.30
2023-02-22T01:13:32.980Z,6.30
2023-02-22T01:13:57.917Z,6.30
2023-02-22T01:14:21.331Z,6.30
2023-02-22T01:14:44.010Z,6.30
2023-02-22T01:15:10.707Z,6.30
2023-02-22T01:15:33.821Z,6.30
2023-02-22T01:15:56.986Z,6.30
2023-02-22T01:16:19.974Z,6.30
2023-02-22T01:16:42.786Z,6.30
2023-02-22T01:17:05.512Z,6.30
2023-02-22T01:17:31.452Z,6.30
2023-02-22T01:17:55.283Z,6.30
2023-02-22T01:18:18.086Z,6.30
2023-02-22T01:18:40.805Z,6.30
2023-02-22T01:19:03.574Z,6.30
2023-02-22T01:19:29.464Z,6.30
2023-02-22T01:19:53.908Z,6.30
2023-02-22T01:20:17.006Z,6.20
2023-02-22T01:20:39.817Z,6.30
2023-02-22T01:21:02.847Z,6.20
2023-02-22T01:21:28.745Z,6.20
2023-02-22T01:21:51.510Z,6.30
2023-02-22T01:22:14.250Z,6.20
2023-02-22T01:22:38.874Z,6.20
2023-02-22T01:23:03.772Z,6.20
2023-02-22T01:23:26.895Z,6.20
2023-02-22T01:23:49.681Z,6.20
2023-02-22T01:24:16.569Z,6.20
2023-02-22T01:24:39.367Z,6.20
2023-02-22T01:25:02.109Z,6.10
2023-02-22T01:25:28.060Z,6.20
2023-02-22T01:25:50.896Z,6.20
2023-02-22T01:26:13.794Z,6.20
2023-02-22T01:26:38.209Z,6.20
2023-02-22T01:27:02.916Z,6.30
2023-02-22T01:27:25.630Z,6.20
2023-02-22T01:27:50.401Z,6.20
2023-02-22T01:28:13.950Z,6.20
2023-02-22T01:28:38.010Z,6.30
2023-02-22T01:29:00.735Z,6.30
2023-02-22T01:29:23.655Z,6.30
2023-02-22T01:29:48.471Z,6.20
2023-02-22T01:30:12.394Z,6.20
2023-02-22T01:30:35.881Z,6.20
2023-02-22T01:30:58.821Z,6.20
2023-02-22T01:31:24.262Z,6.20
2023-02-22T01:31:52.017Z,6.20
2023-02-22T01:32:15.308Z,6.20
2023-02-22T01:32:39.080Z,6.20
2023-02-22T01:33:02.456Z,6.20
2023-02-22T01:33:25.936Z,6.20
2023-02-22T01:33:48.726Z,6.20
2023-02-22T01:34:12.026Z,6.30
2023-02-22T01:34:34.747Z,6.20
2023-02-22T01:34:57.458Z,6.20
2023-02-22T01:35:23.374Z,6.30
2023-02-22T01:35:46.505Z,6.30
2023-02-22T01:36:11.730Z,6.30
2023-02-22T01:36:34.411Z,6.30
2023-02-22T01:36:57.145Z,6.20
2023-02-22T01:37:22.410Z,6.20
2023-02-22T01:37:46.636Z,6.30
2023-02-22T01:38:09.328Z,6.20
2023-02-22T01:38:32.153Z,6.30
2023-02-22T01:38:55.050Z,6.20
2023-02-22T01:39:20.746Z,6.20
2023-02-22T01:39:43.516Z,6.20
2023-02-22T01:40:08.030Z,6.20
2023-02-22T01:40:31.756Z,6.20
2023-02-22T01:40:54.634Z,6.20
2023-02-22T01:41:18.655Z,6.10
2023-02-22T01:41:41.608Z,6.10
2023-02-22T01:42:04.433Z,6.10
2023-02-22T01:42:27.364Z,6.20
2023-02-22T01:42:53.307Z,6.10
2023-02-22T01:43:20.403Z,6.10
2023-02-22T01:43:43.173Z,6.10
2023-02-22T01:44:20.338Z,6.10
2023-02-22T01:44:43.068Z,6.00
2023-02-22T01:45:44.138Z,6.00
2023-02-22T01:46:08.614Z,6.00
2023-02-22T01:46:31.859Z,6.00
2023-02-22T01:46:54.672Z,6.00
2023-02-22T01:47:17.347Z,6.00
2023-02-22T01:47:42.255Z,6.00
2023-02-22T01:48:06.474Z,6.00
2023-02-22T01:48:35.656Z,6.00
2023-02-22T01:49:00.493Z,6.00
2023-02-22T01:49:23.690Z,6.00
2023-02-22T01:49:48.232Z,6.00
2023-02-22T01:50:10.995Z,6.00
2023-02-22T01:50:34.892Z,6.00
2023-02-22T01:51:00.032Z,6.00
2023-02-22T01:51:24.314Z,6.00
2023-02-22T01:51:48.002Z,6.00
2023-02-22T01:52:15.271Z,6.00
2023-02-22T01:52:37.998Z,6.00
2023-02-22T01:53:02.183Z,6.00
2023-02-22T01:53:27.438Z,6.00
2023-02-22T01:53:51.770Z,6.00
2023-02-22T01:54:17.705Z,6.00
2023-02-22T01:54:46.588Z,6.00
2023-02-22T01:55:11.278Z,6.00
2023-02-22T01:55:34.196Z,6.00
2023-02-22T01:55:56.968Z,6.00
2023-02-22T01:56:23.717Z,6.00
2023-02-22T01:56:50.856Z,6.00
2023-02-22T01:57:16.348Z,6.00
2023-02-22T01:57:39.256Z,6.00
2023-02-22T01:58:02.136Z,6.00
2023-02-22T01:58:25.611Z,6.00
2023-02-22T01:58:50.782Z,6.00
2023-02-22T01:59:13.470Z,6.00
2023-02-22T01:59:37.824Z,6.00
2023-02-22T02:00:02.225Z,6.00
2023-02-22T02:00:27.744Z,6.00
2023-02-22T02:00:50.715Z,6.00
2023-02-22T02:01:13.554Z,6.00
2023-02-22T02:01:36.650Z,6.00
2023-02-22T02:02:01.516Z,6.00
2023-02-22T02:02:25.309Z,6.00
2023-02-22T02:02:49.355Z,6.00
2023-02-22T02:03:15.450Z,6.00
2023-02-22T02:03:38.818Z,6.00
2023-02-22T02:04:03.506Z,6.00
2023-02-22T02:04:26.314Z,6.00
2023-02-22T02:04:49.168Z,5.90
2023-02-22T02:05:12.007Z,6.00
2023-02-22T02:05:34.822Z,5.90
2023-02-22T02:05:59.029Z,5.90
2023-02-22T02:06:22.254Z,5.90
2023-02-22T02:06:44.982Z,5.90
2023-02-22T02:07:12.148Z,5.90
2023-02-22T02:07:34.882Z,5.90
2023-02-22T02:07:58.082Z,5.90
2023-02-22T02:08:31.358Z,5.90
2023-02-22T02:08:58.808Z,5.90
2023-02-22T02:09:23.519Z,5.80
2023-02-22T02:09:52.170Z,5.90
2023-02-22T02:10:15.885Z,5.80
2023-02-22T02:10:38.629Z,5.80
2023-02-22T02:11:01.315Z,5.80
2023-02-22T02:11:25.695Z,5.90
2023-02-22T02:11:48.381Z,5.90
2023-02-22T02:12:12.640Z,5.90
2023-02-22T02:12:36.110Z,5.90
2023-02-22T02:12:58.820Z,5.90
2023-02-22T02:13:21.572Z,5.90
2023-02-22T02:13:44.289Z,5.90
2023-02-22T02:14:07.731Z,5.90
2023-02-22T02:14:32.208Z,5.90
2023-02-22T02:15:12.007Z,5.90
2023-02-22T02:15:34.876Z,5.90
2023-02-22T02:15:58.756Z,5.90
2023-02-22T02:16:21.954Z,5.90
2023-02-22T02:16:46.326Z,5.90
2023-02-22T02:17:10.300Z,6.00
2023-02-22T02:17:34.597Z,6.00
2023-02-22T02:18:00.829Z,6.00
2023-02-22T02:18:23.646Z,6.00
2023-02-22T02:18:46.492Z,6.00
2023-02-22T02:19:14.903Z,6.00
2023-02-22T02:19:48.554Z,6.00
2023-02-22T02:20:13.875Z,5.90
2023-02-22T02:20:42.449Z,6.00
2023-02-22T02:21:34.412Z,6.00
2023-02-22T02:22:25.495Z,6.00
2023-02-22T02:22:52.815Z,6.00
2023-02-22T02:23:29.407Z,6.00
2023-02-22T02:24:09.640Z,6.00
2023-02-22T02:25:06.892Z,6.00
2023-02-22T02:25:57.208Z,5.90
2023-02-22T02:26:39.375Z,5.80
2023-02-22T02:27:12.377Z,5.80
2023-02-22T02:27:41.823Z,5.80
2023-02-22T02:28:40.205Z,5.80
2023-02-22T02:29:24.293Z,5.80
2023-02-22T02:30:19.536Z,5.70
2023-02-22T02:30:56.970Z,5.80
2023-02-22T02:31:32.863Z,5.80
2023-02-22T02:32:20.188Z,5.80
2023-02-22T02:32:49.128Z,5.80
2023-02-22T02:33:12.449Z,5.80
2023-02-22T02:33:35.307Z,5.80
2023-02-22T02:33:59.968Z,5.80
2023-02-22T02:34:26.093Z,5.80
2023-02-22T02:34:51.153Z,5.80
2023-02-22T02:35:15.963Z,5.80
2023-02-22T02:35:45.353Z,5.80
2023-02-22T02:36:09.648Z,5.70
2023-02-22T02:36:35.209Z,5.80
2023-02-22T02:37:01.458Z,5.80
2023-02-22T02:37:36.398Z,5.80
2023-02-22T02:38:04.817Z,5.80
2023-02-22T02:38:32.756Z,5.80
2023-02-22T02:38:56.874Z,5.80
2023-02-22T02:39:26.158Z,5.80
2023-02-22T02:39:50.907Z,5.80
2023-02-22T02:40:20.566Z,5.90
2023-02-22T02:40:47.378Z,5.80
2023-02-22T02:41:11.068Z,5.80
2023-02-22T02:41:35.663Z,5.80
2023-02-22T02:41:59.443Z,5.80
2023-02-22T02:42:23.463Z,5.80
2023-02-22T02:42:51.879Z,5.90
2023-02-22T02:43:16.266Z,5.90
2023-02-22T02:43:42.081Z,5.80
2023-02-22T02:44:06.089Z,5.80
2023-02-22T02:44:31.381Z,5.80
2023-02-22T02:44:56.105Z,5.80
2023-02-22T02:45:22.244Z,5.80
2023-02-22T02:45:47.589Z,5.80
2023-02-22T02:46:12.573Z,5.80
2023-02-22T02:46:36.644Z,5.80
2023-02-22T02:47:01.162Z,5.70
2023-02-22T02:47:27.389Z,5.80
2023-02-22T02:47:52.384Z,5.70
2023-02-22T02:48:15.694Z,5.80
2023-02-22T02:48:42.421Z,5.70
2023-02-22T02:49:55.500Z,5.80
2023-02-22T02:50:20.200Z,5.80
2023-02-22T02:50:44.415Z,5.70
2023-02-22T02:51:07.919Z,5.70
2023-02-22T02:51:32.608Z,5.70
2023-02-22T02:51:55.837Z,5.70
2023-02-22T02:52:19.622Z,5.70
2023-02-22T02:52:42.322Z,5.70
2023-02-22T02:53:06.394Z,5.70
2023-02-22T02:53:42.477Z,5.70
2023-02-22T02:54:05.265Z,5.70
2023-02-22T02:54:28.013Z,5.60
2023-02-22T02:54:50.808Z,5.60
2023-02-22T02:55:13.512Z,5.70
2023-02-22T02:55:36.959Z,5.60
2023-02-22T02:56:00.194Z,5.60
2023-02-22T02:56:23.613Z,5.60
2023-02-22T02:56:46.658Z,5.60
2023-02-22T02:57:09.619Z,5.60
2023-02-22T02:57:32.331Z,5.60
2023-02-22T02:57:55.793Z,5.60
2023-02-22T02:58:20.586Z,5.60
2023-02-22T02:58:46.167Z,5.60
2023-02-22T02:59:24.000Z,5.60
2023-02-22T02:59:46.826Z,5.60
2023-02-22T03:00:22.772Z,5.60
2023-02-22T03:00:45.689Z,5.60
2023-02-22T03:01:08.479Z,5.60
2023-02-22T03:01:54.344Z,5.60
2023-02-22T03:02:27.215Z,5.60
2023-02-22T03:03:05.729Z,5.50
2023-02-22T03:03:48.035Z,5.60
2023-02-22T03:04:26.889Z,5.60
2023-02-22T03:04:56.236Z,5.50
2023-02-22T03:05:29.318Z,5.60
2023-02-22T03:06:07.062Z,5.50
2023-02-22T03:06:57.644Z,5.60
2023-02-22T03:07:39.120Z,5.60
2023-02-22T03:08:04.806Z,5.60
2023-02-22T03:08:30.356Z,5.60
2023-02-22T03:08:57.240Z,5.60
2023-02-22T03:09:28.628Z,5.60
2023-02-22T03:10:03.664Z,5.60
2023-02-22T03:10:43.890Z,5.70
2023-02-22T03:11:15.634Z,5.60
2023-02-22T03:11:42.591Z,5.60
2023-02-22T03:12:13.614Z,5.60
2023-02-22T03:12:42.308Z,5.60
2023-02-22T03:13:09.209Z,5.60
2023-02-22T03:13:36.549Z,5.50
2023-02-22T03:14:03.399Z,5.50
2023-02-22T03:14:30.378Z,5.50
2023-02-22T03:15:00.448Z,5.50
2023-02-22T03:15:29.785Z,5.50
2023-02-22T03:15:54.329Z,5.50
2023-02-22T03:16:21.206Z,5.50
2023-02-22T03:16:45.831Z,5.50
2023-02-22T03:17:13.766Z,5.50
2023-02-22T03:17:45.432Z,5.50
2023-02-22T03:18:09.649Z,5.50
2023-02-22T03:18:37.147Z,5.60
2023-02-22T03:19:04.845Z,5.50
2023-02-22T03:19:28.635Z,5.50
2023-02-22T03:19:52.907Z,5.50
2023-02-22T03:20:18.402Z,5.50
2023-02-22T03:20:45.498Z,5.50
2023-02-22T03:21:12.205Z,5.50
2023-02-22T03:21:37.751Z,5.40
2023-02-22T03:22:03.249Z,5.40
2023-02-22T03:22:28.189Z,5.40
2023-02-22T03:22:53.562Z,5.40
2023-02-22T03:23:21.291Z,5.30
2023-02-22T03:23:45.804Z,5.40
2023-02-22T03:24:10.564Z,5.40
2023-02-22T03:24:35.698Z,5.40
2023-02-22T03:25:09.009Z,5.30
2023-02-22T03:25:34.392Z,5.50
2023-02-22T03:25:59.363Z,5.40
2023-02-22T03:26:27.080Z,5.30
2023-02-22T03:26:52.736Z,5.40
2023-02-22T03:27:21.835Z,5.40
2023-02-22T03:27:47.206Z,5.40
2023-02-22T03:28:11.955Z,5.40
2023-02-22T03:28:34.698Z,5.40
2023-02-22T03:28:57.443Z,5.40
2023-02-22T03:29:21.006Z,5.50
2023-02-22T03:29:44.489Z,5.50
2023-02-22T03:30:09.320Z,5.50
2023-02-22T03:30:36.099Z,5.50
2023-02-22T03:31:01.046Z,5.50
2023-02-22T03:31:26.615Z,5.50
2023-02-22T03:32:04.913Z,5.50
2023-02-22T03:32:29.801Z,5.50
2023-02-22T03:32:56.852Z,5.50
2023-02-22T03:33:22.678Z,5.50
2023-02-22T03:33:46.503Z,5.40
2023-02-22T03:34:18.875Z,5.40
2023-02-22T03:34:43.014Z,5.40
2023-02-22T03:35:07.692Z,5.40
2023-02-22T03:35:32.486Z,5.40
2023-02-22T03:35:57.442Z,5.40
2023-02-22T03:36:25.067Z,5.30
2023-02-22T03:36:50.637Z,5.30
2023-02-22T03:37:14.922Z,5.30
2023-02-22T03:37:42.041Z,5.30
2023-02-22T03:38:04.987Z,5.30
2023-02-22T03:38:30.461Z,5.30
2023-02-22T03:38:55.866Z,5.30
2023-02-22T03:39:18.813Z,5.30
2023-02-22T03:39:42.282Z,5.30
2023-02-22T03:40:15.357Z,5.30
2023-02-22T03:40:43.763Z,5.30
2023-02-22T03:41:07.052Z,5.30
2023-02-22T03:41:29.816Z,5.30
2023-02-22T03:41:52.612Z,5.30
2023-02-22T03:42:20.090Z,5.40
2023-02-22T03:42:47.622Z,5.40
2023-02-22T03:43:12.657Z,5.40
2023-02-22T03:43:38.277Z,5.40
2023-02-22T03:44:02.311Z,5.40
2023-02-22T03:44:26.322Z,5.40
2023-02-22T03:44:49.311Z,5.40
2023-02-22T03:45:14.362Z,5.40
2023-02-22T03:45:37.452Z,5.50
2023-02-22T03:46:00.345Z,5.50
2023-02-22T03:46:23.171Z,5.50
2023-02-22T03:46:48.403Z,5.50
2023-02-22T03:47:13.608Z,5.50
2023-02-22T03:47:40.337Z,5.50
2023-02-22T03:48:07.060Z,5.60
2023-02-22T03:48:33.478Z,5.60
2023-02-22T03:49:00.337Z,5.60
2023-02-22T03:49:29.857Z,5.60
2023-02-22T03:49:53.903Z,5.60
2023-02-22T03:50:21.009Z,5.60
2023-02-22T03:50:47.217Z,5.60
2023-02-22T03:51:10.538Z,5.60
2023-02-22T03:51:33.324Z,5.50
2023-02-22T03:51:56.057Z,5.50
2023-02-22T03:52:18.839Z,5.50
2023-02-22T03:52:44.024Z,5.50
2023-02-22T03:53:09.922Z,5.50
2023-02-22T03:53:34.123Z,5.50
2023-02-22T03:53:56.979Z,5.40
2023-02-22T03:54:19.659Z,5.40
2023-02-22T03:54:42.416Z,5.40
2023-02-22T03:55:11.296Z,5.40
2023-02-22T03:55:35.395Z,5.40
2023-02-22T03:55:58.578Z,5.40
2023-02-22T03:56:26.170Z,5.50
2023-02-22T03:56:57.703Z,5.40
2023-02-22T03:57:28.152Z,5.50
2023-02-22T03:57:51.996Z,5.50
2023-02-22T03:58:14.741Z,5.50
2023-02-22T03:58:48.509Z,5.50
2023-02-22T03:59:11.221Z,5.50
2023-02-22T03:59:36.226Z,5.50
2023-02-22T03:59:58.940Z,5.50
2023-02-22T04:00:25.274Z,5.50
2023-02-22T04:00:47.986Z,5.50
2023-02-22T04:01:13.436Z,5.50
2023-02-22T04:01:38.766Z,5.50
2023-02-22T04:02:02.181Z,5.50
2023-02-22T04:02:34.311Z,5.50
2023-02-22T04:02:57.190Z,5.50
2023-02-22T04:03:25.062Z,5.50
2023-02-22T04:03:48.071Z,5.50
2023-02-22T04:04:10.832Z,5.50
2023-02-22T04:04:33.683Z,5.40
2023-02-22T04:04:59.070Z,5.40
2023-02-22T04:05:24.929Z,5.40
2023-02-22T04:05:47.686Z,5.40
2023-02-22T04:06:10.506Z,5.40
2023-02-22T04:06:38.092Z,5.40
2023-02-22T04:07:01.121Z,5.40
2023-02-22T04:07:23.942Z,5.40
2023-02-22T04:07:46.895Z,5.50
2023-02-22T04:08:35.786Z,5.50
2023-02-22T04:09:04.548Z,5.50
2023-02-22T04:09:27.411Z,5.50
2023-02-22T04:09:50.116Z,5.50
2023-02-22T04:10:13.523Z,5.50
2023-02-22T04:10:38.067Z,5.50
2023-02-22T04:11:01.940Z,5.50
2023-02-22T04:11:24.676Z,5.50
2023-02-22T04:11:49.774Z,5.50
2023-02-22T04:12:17.131Z,5.50
2023-02-22T04:12:39.850Z,5.50
2023-02-22T04:13:02.574Z,5.40
2023-02-22T04:13:27.611Z,5.50
2023-02-22T04:13:50.325Z,5.40
2023-02-22T04:14:16.262Z,5.50
2023-02-22T04:14:39.016Z,5.40
2023-02-22T04:15:02.276Z,5.50
2023-02-22T04:15:25.034Z,5.40
2023-02-22T04:15:47.843Z,5.40
2023-02-22T04:16:10.737Z,5.40
2023-02-22T04:16:33.480Z,5.40
2023-02-22T04:16:56.267Z,5.40
2023-02-22T04:17:19.614Z,5.40
2023-02-22T04:17:42.287Z,5.40
2023-02-22T04:18:05.973Z,5.40
2023-02-22T04:18:30.196Z,5.40
2023-02-22T04:18:52.909Z,5.40
2023-02-22T04:19:22.997Z,5.40
2023-02-22T04:19:56.209Z,5.40
2023-02-22T04:20:20.176Z,5.40
2023-02-22T04:20:46.468Z,5.40
2023-02-22T04:21:09.411Z,5.40
2023-02-22T04:21:32.256Z,5.40
2023-02-22T04:21:55.924Z,5.30
2023-02-22T04:22:21.988Z,5.30
2023-02-22T04:22:44.662Z,5.40
2023-02-22T04:23:17.241Z,5.40
2023-02-22T04:23:40.018Z,5.30
2023-02-22T04:24:02.724Z,5.40
2023-02-22T04:24:25.464Z,5.40
2023-02-22T04:24:49.140Z,5.40
2023-02-22T04:25:11.858Z,5.40
2023-02-22T04:25:34.892Z,5.40
2023-02-22T04:25:57.770Z,5.50
2023-02-22T04:26:20.571Z,5.50
2023-02-22T04:26:45.931Z,5.40
2023-02-22T04:27:08.647Z,5.40
2023-02-22T04:27:49.008Z,5.40
2023-02-22T04:28:11.818Z,5.40
2023-02-22T04:28:34.727Z,5.40
2023-02-22T04:28:57.465Z,5.40
2023-02-22T04:29:20.372Z,5.40
2023-02-22T04:29:43.213Z,5.40
2023-02-22T04:30:06.620Z,5.40
2023-02-22T04:30:30.308Z,5.40
2023-02-22T04:30:53.011Z,5.40
2023-02-22T04:31:16.714Z,5.40
2023-02-22T04:31:39.836Z,5.40
2023-02-22T04:32:02.583Z,5.40
2023-02-22T04:32:25.316Z,5.40
2023-02-22T04:32:54.091Z,5.40
2023-02-22T04:33:16.922Z,5.30
2023-02-22T04:33:53.323Z,5.40
2023-02-22T04:34:16.167Z,5.30
2023-02-22T04:34:38.936Z,5.30
2023-02-22T04:35:01.669Z,5.30
2023-02-22T04:35:26.935Z,5.30
2023-02-22T04:35:49.834Z,5.30
2023-02-22T04:36:16.232Z,5.30
2023-02-22T04:36:39.009Z,5.30
2023-02-22T04:37:02.307Z,5.30
2023-02-22T04:37:25.006Z,5.30
2023-02-22T04:37:47.838Z,5.30
2023-02-22T04:38:13.887Z,5.30
2023-02-22T04:38:41.716Z,5.30
2023-02-22T04:39:05.410Z,5.30
2023-02-22T04:39:28.212Z,5.30
2023-02-22T04:39:53.489Z,5.30
2023-02-22T04:40:16.870Z,5.30
2023-02-22T04:40:42.786Z,5.30
2023-02-22T04:41:05.762Z,5.30
2023-02-22T04:41:31.619Z,5.30
2023-02-22T04:41:54.438Z,5.30
2023-02-22T04:42:28.815Z,5.30
2023-02-22T04:42:51.548Z,5.30
2023-02-22T04:43:16.625Z,5.30
2023-02-22T04:43:39.413Z,5.30
2023-02-22T04:44:04.386Z,5.30
2023-02-22T04:44:27.096Z,5.30
2023-02-22T04:44:49.923Z,5.30
2023-02-22T04:45:15.051Z,5.30
2023-02-22T04:45:38.056Z,5.30
2023-02-22T04:46:01.172Z,5.30
2023-02-22T04:46:26.571Z,5.30
2023-02-22T04:46:49.772Z,5.30
2023-02-22T04:47:15.075Z,5.30
2023-02-22T04:47:43.551Z,5.30
2023-02-22T04:48:06.412Z,5.30
2023-02-22T04:48:29.047Z,5.30
2023-02-22T04:48:55.446Z,5.40
2023-02-22T04:49:18.161Z,5.30
2023-02-22T04:49:40.926Z,5.30
2023-02-22T04:50:03.730Z,5.40
2023-02-22T04:50:26.533Z,5.30
2023-02-22T04:50:58.867Z,5.30
2023-02-22T04:51:21.624Z,5.40
2023-02-22T04:51:44.431Z,5.40
2023-02-22T04:52:07.216Z,5.40
2023-02-22T04:52:32.380Z,5.40
2023-02-22T04:52:55.206Z,5.40
2023-02-22T04:53:18.017Z,5.40
2023-02-22T04:53:40.967Z,5.40
2023-02-22T04:54:04.003Z,5.30
2023-02-22T04:54:26.743Z,5.30
2023-02-22T04:54:51.801Z,5.30
2023-02-22T04:55:14.536Z,5.30
2023-02-22T04:55:37.403Z,5.30
2023-02-22T04:56:00.179Z,5.40
2023-02-22T04:56:22.937Z,5.30
2023-02-22T04:56:45.715Z,5.30
2023-02-22T04:57:11.772Z,5.30
2023-02-22T04:57:34.588Z,5.40
2023-02-22T04:57:57.609Z,5.30
2023-02-22T04:58:26.489Z,5.30
2023-02-22T04:58:55.069Z,5.30
2023-02-22T04:59:19.864Z,5.30
2023-02-22T04:59:42.985Z,5.30
2023-02-22T05:00:11.124Z,5.30
2023-02-22T05:00:33.815Z,5.30
2023-02-22T05:00:56.512Z,5.30
2023-02-22T05:01:19.650Z,5.30
2023-02-22T05:01:45.631Z,5.30
2023-02-22T05:02:08.456Z,5.40
2023-02-22T05:02:33.727Z,5.40
2023-02-22T05:02:56.616Z,5.30
2023-02-22T05:03:19.470Z,5.30
2023-02-22T05:03:42.249Z,5.30
2023-02-22T05:04:06.996Z,5.30
2023-02-22T05:04:30.639Z,5.40
2023-02-22T05:04:53.600Z,5.40
2023-02-22T05:05:16.358Z,5.30
2023-02-22T05:05:39.240Z,5.40
2023-02-22T05:06:05.207Z,5.40
2023-02-22T05:06:27.931Z,5.40
2023-02-22T05:06:51.856Z,5.30
2023-02-22T05:07:15.455Z,5.30
2023-02-22T05:07:38.191Z,5.30
2023-02-22T05:08:00.836Z,5.30
2023-02-22T05:08:23.656Z,5.30
2023-02-22T05:08:48.891Z,5.30
2023-02-22T05:09:11.844Z,5.30
2023-02-22T05:09:34.585Z,5.20
2023-02-22T05:09:59.723Z,5.30
2023-02-22T05:10:25.233Z,5.30
2023-02-22T05:10:48.009Z,5.30
2023-02-22T05:11:10.748Z,5.30
2023-02-22T05:11:33.447Z,5.30
2023-02-22T05:11:58.871Z,5.20
2023-02-22T05:12:23.806Z,5.20
2023-02-22T05:12:46.660Z,5.20
2023-02-22T05:13:09.539Z,5.30
2023-02-22T05:13:34.521Z,5.30
2023-02-22T05:13:57.280Z,5.30
2023-02-22T05:14:20.015Z,5.30
2023-02-22T05:14:45.137Z,5.30
2023-02-22T05:15:16.009Z,5.30
2023-02-22T05:15:38.819Z,5.30
2023-02-22T05:16:01.606Z,5.30
2023-02-22T05:16:24.914Z,5.30
2023-02-22T05:16:49.793Z,5.30
2023-02-22T05:17:12.488Z,5.30
2023-02-22T05:17:35.563Z,5.30
2023-02-22T05:18:01.243Z,5.30
2023-02-22T05:18:23.965Z,5.30
2023-02-22T05:18:46.682Z,5.30
2023-02-22T05:19:10.914Z,5.30
2023-02-22T05:19:33.675Z,5.30
2023-02-22T05:19:56.389Z,5.30
2023-02-22T05:20:25.706Z,5.30
2023-02-22T05:20:54.421Z,5.30
2023-02-22T05:21:17.427Z,5.30
2023-02-22T05:21:43.533Z,5.30
2023-02-22T05:22:06.256Z,5.30
2023-02-22T05:22:31.207Z,5.30
2023-02-22T05:22:54.471Z,5.40
2023-02-22T05:23:17.200Z,5.30
2023-02-22T05:23:42.374Z,5.30
2023-02-22T05:24:05.619Z,5.30
2023-02-22T05:24:28.326Z,5.30
2023-02-22T05:24:52.507Z,5.30
2023-02-22T05:25:15.406Z,5.30
2023-02-22T05:25:39.056Z,5.30
2023-02-22T05:26:01.720Z,5.30
2023-02-22T05:26:27.568Z,5.30
2023-02-22T05:26:51.458Z,5.30
2023-02-22T05:27:14.230Z,5.30
2023-02-22T05:27:37.090Z,5.30
2023-02-22T05:28:00.683Z,5.30
2023-02-22T05:28:23.478Z,5.30
2023-02-22T05:28:46.265Z,5.30
2023-02-22T05:29:08.933Z,5.30
2023-02-22T05:29:31.703Z,5.30
2023-02-22T05:29:54.461Z,5.30
2023-02-22T05:30:17.136Z,5.30
2023-02-22T05:30:39.970Z,5.30
2023-02-22T05:31:02.786Z,5.30
2023-02-22T05:31:26.588Z,5.30
2023-02-22T05:31:49.679Z,5.30
2023-02-22T05:32:13.021Z,5.30
2023-02-22T05:32:35.960Z,5.30
2023-02-22T05:33:04.535Z,5.30
2023-02-22T05:33:27.290Z,5.30
2023-02-22T05:33:49.967Z,5.20
2023-02-22T05:34:14.580Z,5.20
2023-02-22T05:35:38.275Z,5.20
2023-02-22T05:36:01.074Z,5.20
2023-02-22T05:36:23.940Z,5.30
2023-02-22T05:36:49.942Z,5.20
2023-02-22T05:37:12.824Z,5.20
2023-02-22T05:37:37.036Z,5.20
2023-02-22T05:38:02.104Z,5.20
2023-02-22T05:38:25.225Z,5.20